createdAt,value
2023-01-21T00:02:17.542Z,38.08
2023-01-21T00:04:49.070Z,34.50
2023-01-21T00:07:20.522Z,35.97
2023-01-21T00:09:52.037Z,38.03
2023-01-21T00:12:23.483Z,38.07
2023-01-21T00:14:54.892Z,38.42
2023-01-21T00:17:26.364Z,37.92
2023-01-21T00:19:57.799Z,35.83
2023-01-21T00:22:29.569Z,43.17
2023-01-21T00:25:01.031Z,44.38
2023-01-21T00:27:32.426Z,40.13
2023-01-21T00:30:04.622Z,41.95
2023-01-21T00:32:36.155Z,38.83
2023-01-21T00:35:08.467Z,38.38
2023-01-21T00:37:39.873Z,40.47
2023-01-21T00:40:11.931Z,39.15
2023-01-21T00:42:43.329Z,36.60
2023-01-21T00:45:14.785Z,39.83
2023-01-21T00:47:46.209Z,39.83
2023-01-21T00:50:18.039Z,40.40
2023-01-21T00:52:49.588Z,36.95
2023-01-21T00:55:21.054Z,41.03
2023-01-21T00:57:52.612Z,38.97
2023-01-21T01:00:24.382Z,39.73
2023-01-21T01:02:56.040Z,41.05
2023-01-21T01:05:27.642Z,39.25
2023-01-21T01:07:59.474Z,40.15
2023-01-21T01:10:30.926Z,41.05
2023-01-21T01:13:02.381Z,40.53
2023-01-21T01:15:33.844Z,42.90
2023-01-21T01:18:05.285Z,43.00
2023-01-21T01:20:36.702Z,44.42
2023-01-21T01:23:08.155Z,42.53
2023-01-21T01:25:39.712Z,43.90
2023-01-21T01:28:11.124Z,43.47
2023-01-21T01:30:42.620Z,44.78
2023-01-21T01:33:14.125Z,43.10
2023-01-21T01:35:46.818Z,44.00
2023-01-21T01:38:22.195Z,44.58
2023-01-21T01:40:53.664Z,43.28
2023-01-21T01:43:55.822Z,42.38
2023-01-21T01:46:30.391Z,41.60
2023-01-21T01:49:06.869Z,44.30
2023-01-21T01:51:47.736Z,42.67
2023-01-21T01:54:24.845Z,48.15
2023-01-21T01:57:00.349Z,43.33
2023-01-21T01:59:32.708Z,42.63
2023-01-21T02:02:08.526Z,43.10
2023-01-21T02:04:47.040Z,42.88
2023-01-21T02:07:20.735Z,39.53
2023-01-21T02:09:53.444Z,41.78
2023-01-21T02:12:25.308Z,40.00
2023-01-21T02:14:56.810Z,40.28
2023-01-21T02:17:46.960Z,46.22
2023-01-21T02:20:50.140Z,40.85
2023-01-21T02:23:52.429Z,39.42
2023-01-21T02:26:55.390Z,39.90
2023-01-21T02:29:34.651Z,38.38
2023-01-21T02:32:33.958Z,41.60
2023-01-21T02:35:14.205Z,38.90
2023-01-21T02:38:04.150Z,39.92
2023-01-21T02:41:13.795Z,39.97
2023-01-21T02:44:01.803Z,39.40
2023-01-21T02:46:45.327Z,40.83
2023-01-21T02:49:26.979Z,39.15
2023-01-21T02:51:58.449Z,43.28
2023-01-21T02:54:39.092Z,43.15
2023-01-21T02:57:14.903Z,40.63
2023-01-21T02:59:50.483Z,42.25
2023-01-21T03:02:28.172Z,39.92
2023-01-21T03:05:09.389Z,40.30
2023-01-21T03:07:51.397Z,40.53
2023-01-21T03:10:35.473Z,39.53
2023-01-21T03:13:12.861Z,39.57
2023-01-21T03:15:53.153Z,42.17
2023-01-21T03:18:42.078Z,42.27
2023-01-21T03:21:22.469Z,38.72
2023-01-21T03:23:56.694Z,40.15
2023-01-21T03:26:38.749Z,38.65
2023-01-21T03:29:16.772Z,40.35
2023-01-21T03:31:53.300Z,38.85
2023-01-21T03:34:27.917Z,41.30
2023-01-21T03:37:23.718Z,40.80
2023-01-21T03:39:59.722Z,40.40
2023-01-21T03:42:31.863Z,39.72
2023-01-21T03:45:04.051Z,40.33
2023-01-21T03:47:37.500Z,39.85
2023-01-21T03:50:20.762Z,39.95
2023-01-21T03:52:52.602Z,40.45
2023-01-21T03:55:24.053Z,42.05
2023-01-21T03:57:55.487Z,39.58
2023-01-21T04:00:26.889Z,41.40
2023-01-21T04:02:58.305Z,39.45
2023-01-21T04:05:29.752Z,39.28
2023-01-21T04:08:01.264Z,41.10
2023-01-21T04:10:32.839Z,40.67
2023-01-21T04:13:04.283Z,39.20
2023-01-21T04:15:35.744Z,38.40
2023-01-21T04:18:07.184Z,38.17
2023-01-21T04:20:38.878Z,37.03
2023-01-21T04:23:10.335Z,38.88
2023-01-21T04:25:41.767Z,38.08
2023-01-21T04:28:13.229Z,38.47
2023-01-21T04:30:47.325Z,38.47
2023-01-21T04:33:18.766Z,40.20
2023-01-21T04:35:50.211Z,39.50
2023-01-21T04:38:21.685Z,38.42
2023-01-21T04:40:53.397Z,38.72
2023-01-21T04:43:24.965Z,38.75
2023-01-21T04:45:56.502Z,38.50
2023-01-21T04:48:27.982Z,37.78
2023-01-21T04:50:59.468Z,41.42
2023-01-21T04:53:30.967Z,37.38
2023-01-21T04:56:02.409Z,38.90
2023-01-21T04:58:34.940Z,37.30
2023-01-21T05:01:06.541Z,37.75
2023-01-21T05:03:38.017Z,37.38
2023-01-21T05:06:09.506Z,36.90
2023-01-21T05:08:40.973Z,37.92
2023-01-21T05:11:16.502Z,39.97
2023-01-21T05:13:47.908Z,37.97
2023-01-21T05:16:19.405Z,38.15
2023-01-21T05:18:50.928Z,37.37
2023-01-21T05:21:22.378Z,37.10
2023-01-21T05:23:53.810Z,37.88
2023-01-21T05:26:25.416Z,38.97
2023-01-21T05:28:56.807Z,42.70
2023-01-21T05:31:28.427Z,39.78
2023-01-21T05:33:59.939Z,36.87
2023-01-21T05:36:31.420Z,38.72
2023-01-21T05:39:03.059Z,37.60
2023-01-21T05:41:34.608Z,38.55
2023-01-21T05:44:06.179Z,37.37
2023-01-21T05:46:37.651Z,39.17
2023-01-21T05:49:09.090Z,37.70
2023-01-21T05:51:40.493Z,38.80
2023-01-21T05:54:11.925Z,40.58
2023-01-21T05:56:43.370Z,37.80
2023-01-21T05:59:14.830Z,37.38
2023-01-21T06:01:46.258Z,39.70
2023-01-21T06:04:17.686Z,39.60
2023-01-21T06:06:49.070Z,38.47
2023-01-21T06:09:20.531Z,38.45
2023-01-21T06:11:52.014Z,45.83
2023-01-21T06:14:23.485Z,39.15
2023-01-21T06:16:54.983Z,39.95
2023-01-21T06:19:26.449Z,38.90
2023-01-21T06:21:57.836Z,38.65
2023-01-21T06:24:29.302Z,37.00
2023-01-21T06:27:00.743Z,38.05
2023-01-21T06:29:32.158Z,42.97
2023-01-21T06:32:03.995Z,38.45
2023-01-21T06:34:35.523Z,38.90
2023-01-21T06:37:06.999Z,40.38
2023-01-21T06:39:38.440Z,37.55
2023-01-21T06:42:09.868Z,36.40
2023-01-21T06:44:41.253Z,38.22
2023-01-21T06:47:13.645Z,37.90
2023-01-21T06:49:45.088Z,38.35
2023-01-21T06:52:16.712Z,38.67
2023-01-21T06:54:48.162Z,37.47
2023-01-21T06:57:19.615Z,39.08
2023-01-21T06:59:51.058Z,37.40
2023-01-21T07:02:22.500Z,38.35
2023-01-21T07:04:54.016Z,38.60
2023-01-21T07:07:25.484Z,38.70
2023-01-21T07:09:57.027Z,38.00
2023-01-21T07:12:28.555Z,37.03
2023-01-21T07:14:59.951Z,37.47
2023-01-21T07:17:31.481Z,37.53
2023-01-21T07:20:03.035Z,38.90
2023-01-21T07:22:34.919Z,39.55
2023-01-21T07:25:07.083Z,37.88
2023-01-21T07:27:38.563Z,37.80
2023-01-21T07:30:16.127Z,39.65
2023-01-21T07:32:47.886Z,39.95
2023-01-21T07:35:19.651Z,41.30
2023-01-21T07:37:51.333Z,41.40
2023-01-21T07:40:22.767Z,42.25
2023-01-21T07:42:55.318Z,39.63
2023-01-21T07:45:26.838Z,40.47
2023-01-21T07:47:58.381Z,41.50
2023-01-21T07:50:29.874Z,40.42
2023-01-21T07:53:01.328Z,39.15
2023-01-21T07:55:33.039Z,39.50
2023-01-21T07:58:04.471Z,43.60
2023-01-21T08:00:35.874Z,41.72
2023-01-21T08:03:07.398Z,43.97
2023-01-21T08:05:38.991Z,42.63
2023-01-21T08:08:10.476Z,41.55
2023-01-21T08:10:41.911Z,40.70
2023-01-21T08:13:13.345Z,38.67
2023-01-21T08:15:44.808Z,41.10
2023-01-21T08:18:16.423Z,39.50
2023-01-21T08:20:48.792Z,40.03
2023-01-21T08:23:20.327Z,37.25
2023-01-21T08:25:52.318Z,39.92
2023-01-21T08:28:23.811Z,39.95
2023-01-21T08:30:55.274Z,40.07
2023-01-21T08:33:26.761Z,43.75
2023-01-21T08:36:03.718Z,43.00
2023-01-21T08:38:35.253Z,45.10
2023-01-21T08:41:06.674Z,43.03
2023-01-21T08:43:38.073Z,45.55
2023-01-21T08:46:09.547Z,41.90
2023-01-21T08:48:40.986Z,48.13
2023-01-21T08:51:12.474Z,41.28
2023-01-21T08:53:43.978Z,43.15
2023-01-21T08:56:15.450Z,41.93
2023-01-21T08:58:46.938Z,44.28
2023-01-21T09:01:18.560Z,41.35
2023-01-21T09:03:57.205Z,42.60
2023-01-21T09:06:29.941Z,40.42
2023-01-21T09:09:01.536Z,39.92
2023-01-21T09:11:33.058Z,42.83
2023-01-21T09:14:04.517Z,43.63
2023-01-21T09:16:36.028Z,44.15
2023-01-21T09:19:07.438Z,43.28
2023-01-21T09:21:38.916Z,43.80
2023-01-21T09:24:10.360Z,44.20
2023-01-21T09:26:44.745Z,50.50
2023-01-21T09:29:16.148Z,47.72
2023-01-21T09:31:47.647Z,43.65
2023-01-21T09:34:19.150Z,46.47
2023-01-21T09:36:51.289Z,44.88
2023-01-21T09:39:22.946Z,43.03
2023-01-21T09:41:56.152Z,45.05
2023-01-21T09:44:31.666Z,44.80
2023-01-21T09:47:23.639Z,45.13
2023-01-21T09:50:27.586Z,45.22
2023-01-21T09:53:17.537Z,43.83
2023-01-21T09:55:49.721Z,40.15
2023-01-21T09:58:35.918Z,40.80
2023-01-21T10:01:42.607Z,42.95
2023-01-21T10:04:32.857Z,43.42
2023-01-21T10:07:11.788Z,46.10
2023-01-21T10:09:46.350Z,43.95
2023-01-21T10:12:43.267Z,43.50
2023-01-21T10:15:46.194Z,45.90
2023-01-21T10:18:25.631Z,46.20
2023-01-21T10:21:02.955Z,45.33
2023-01-21T10:23:38.304Z,49.17
2023-01-21T10:26:13.013Z,46.65
2023-01-21T10:28:48.855Z,45.55
2023-01-21T10:31:22.170Z,45.65
2023-01-21T10:33:54.158Z,45.00
2023-01-21T10:36:54.172Z,41.10
2023-01-21T10:39:34.845Z,40.00
2023-01-21T10:42:24.606Z,37.83
2023-01-21T10:44:59.697Z,36.85
2023-01-21T10:47:55.191Z,35.07
2023-01-21T10:50:44.995Z,35.60
2023-01-21T10:53:31.578Z,34.60
2023-01-21T10:56:16.317Z,35.72
2023-01-21T10:58:50.914Z,36.10
2023-01-21T11:01:29.715Z,34.25
2023-01-21T11:04:13.973Z,33.15
2023-01-21T11:06:50.807Z,34.30
2023-01-21T11:09:26.442Z,34.67
2023-01-21T11:11:58.030Z,32.75
2023-01-21T11:14:29.704Z,32.88
2023-01-21T11:17:01.497Z,36.15
2023-01-21T11:19:33.201Z,33.05
2023-01-21T11:22:19.919Z,33.35
2023-01-21T11:24:51.578Z,34.08
2023-01-21T11:27:22.980Z,33.42
2023-01-21T11:29:54.519Z,32.72
2023-01-21T11:32:28.264Z,33.78
2023-01-21T11:35:10.421Z,32.00
2023-01-21T11:37:45.116Z,31.58
2023-01-21T11:40:25.100Z,34.65
2023-01-21T11:42:57.120Z,32.50
2023-01-21T11:45:34.159Z,32.40
2023-01-21T11:48:20.286Z,32.90
2023-01-21T11:51:06.358Z,31.95
2023-01-21T11:53:37.824Z,29.95
2023-01-21T11:56:09.459Z,30.13
2023-01-21T11:58:41.893Z,30.57
2023-01-21T12:01:21.553Z,31.15
2023-01-21T12:03:57.421Z,30.73
2023-01-21T12:06:29.903Z,30.75
2023-01-21T12:09:04.812Z,30.35
2023-01-21T12:11:36.254Z,28.80
2023-01-21T12:14:07.648Z,28.60
2023-01-21T12:17:04.354Z,28.00
2023-01-21T12:20:14.527Z,28.10
2023-01-21T12:22:56.371Z,28.17
2023-01-21T12:25:39.976Z,27.05
2023-01-21T12:28:23.467Z,28.33
2023-01-21T12:31:10.523Z,29.17
2023-01-21T12:33:50.801Z,28.27
2023-01-21T12:36:29.790Z,28.03
2023-01-21T12:39:37.441Z,28.23
2023-01-21T12:42:14.772Z,26.75
2023-01-21T12:44:50.826Z,28.17
2023-01-21T12:47:44.147Z,27.67
2023-01-21T12:50:23.570Z,27.73
2023-01-21T12:53:10.246Z,26.48
2023-01-21T12:56:00.503Z,27.33
2023-01-21T12:58:36.376Z,28.50
2023-01-21T13:01:13.212Z,26.92
2023-01-21T13:03:59.787Z,27.45
2023-01-21T13:06:53.681Z,27.48
2023-01-21T13:09:48.899Z,28.43
2023-01-21T13:12:24.361Z,27.50
2023-01-21T13:15:12.695Z,28.02
2023-01-21T13:17:49.702Z,27.48
2023-01-21T13:20:22.580Z,27.75
2023-01-21T13:23:04.145Z,27.23
2023-01-21T13:26:01.052Z,27.02
2023-01-21T13:28:45.117Z,28.58
2023-01-21T13:31:37.987Z,26.65
2023-01-21T13:34:39.549Z,26.80
2023-01-21T13:37:26.305Z,25.63
2023-01-21T13:40:19.238Z,26.35
2023-01-21T13:43:16.127Z,25.40
2023-01-21T13:46:06.277Z,26.23
2023-01-21T13:48:40.661Z,27.00
2023-01-21T13:51:12.113Z,27.40
2023-01-21T13:53:56.275Z,26.92
2023-01-21T13:57:05.274Z,26.35
2023-01-21T13:59:43.319Z,26.58
2023-01-21T14:02:20.610Z,25.88
2023-01-21T14:05:06.122Z,26.00
2023-01-21T14:08:00.024Z,26.00
2023-01-21T14:10:35.978Z,26.13
2023-01-21T14:13:42.799Z,27.58
2023-01-21T14:16:17.310Z,26.55
2023-01-21T14:18:51.429Z,26.08
2023-01-21T14:21:46.894Z,27.73
2023-01-21T14:24:43.650Z,27.20
2023-01-21T14:27:33.704Z,27.10
2023-01-21T14:30:15.944Z,26.80
2023-01-21T14:33:01.258Z,29.10
2023-01-21T14:36:00.779Z,27.80
2023-01-21T14:39:03.059Z,29.85
2023-01-21T14:42:01.716Z,28.03
2023-01-21T14:44:42.174Z,29.15
2023-01-21T14:47:39.906Z,27.98
2023-01-21T14:50:11.743Z,27.52
2023-01-21T14:52:46.709Z,27.15
2023-01-21T14:55:26.043Z,28.33
2023-01-21T14:57:59.758Z,28.20
2023-01-21T15:00:34.412Z,28.50
2023-01-21T15:03:14.169Z,27.73
2023-01-21T15:05:51.600Z,27.15
2023-01-21T15:08:40.673Z,26.63
2023-01-21T15:11:22.345Z,28.42
2023-01-21T15:14:35.095Z,28.65
2023-01-21T15:17:44.680Z,27.20
2023-01-21T15:20:39.608Z,26.23
2023-01-21T15:23:30.805Z,25.02
2023-01-21T15:26:08.372Z,26.30
2023-01-21T15:28:45.852Z,24.23
2023-01-21T15:31:20.404Z,23.23
2023-01-21T15:33:51.823Z,24.35
2023-01-21T15:36:31.096Z,24.45
2023-01-21T15:39:25.299Z,25.23
2023-01-21T15:42:15.348Z,26.05
2023-01-21T15:44:59.891Z,25.02
2023-01-21T15:47:57.410Z,24.93
2023-01-21T15:50:43.399Z,25.23
2023-01-21T15:53:41.368Z,25.17
2023-01-21T15:56:25.133Z,24.77
2023-01-21T15:59:30.300Z,24.58
2023-01-21T16:02:22.997Z,25.63
2023-01-21T16:05:03.535Z,25.33
2023-01-21T16:08:06.524Z,24.80
2023-01-21T16:10:58.385Z,24.48
2023-01-21T16:13:46.866Z,24.73
2023-01-21T16:16:46.323Z,24.83
2023-01-21T16:19:26.143Z,24.10
2023-01-21T16:22:02.327Z,26.70
2023-01-21T16:24:41.063Z,27.30
2023-01-21T16:27:20.599Z,25.65
2023-01-21T16:29:56.268Z,22.90
2023-01-21T16:32:28.191Z,20.33
2023-01-21T16:35:00.425Z,20.25
2023-01-21T16:37:32.831Z,20.23
2023-01-21T16:40:19.970Z,22.50
2023-01-21T16:43:12.635Z,21.42
2023-01-21T16:46:14.955Z,20.85
2023-01-21T16:48:55.817Z,17.30
2023-01-21T16:51:31.247Z,16.20
2023-01-21T16:54:17.809Z,16.60
2023-01-21T16:56:50.469Z,16.83
2023-01-21T16:59:26.479Z,17.10
2023-01-21T17:01:59.632Z,18.67
2023-01-21T17:04:31.326Z,19.52
2023-01-21T17:07:04.994Z,21.40
2023-01-21T17:09:37.370Z,21.10
2023-01-21T17:12:22.697Z,20.83
2023-01-21T17:15:01.429Z,20.60
2023-01-21T17:17:36.716Z,26.05
2023-01-21T17:20:40.825Z,25.02
2023-01-21T17:23:26.175Z,24.40
2023-01-21T17:26:03.944Z,27.88
2023-01-21T17:28:44.522Z,25.75
2023-01-21T17:31:16.101Z,28.83
2023-01-21T17:34:01.706Z,30.83
2023-01-21T17:36:35.905Z,27.38
2023-01-21T17:39:09.046Z,28.92
2023-01-21T17:41:43.436Z,28.38
2023-01-21T17:44:22.225Z,28.65
2023-01-21T17:46:54.589Z,29.98
2023-01-21T17:49:26.581Z,28.52
2023-01-21T17:51:58.123Z,27.95
2023-01-21T17:54:29.617Z,29.15
2023-01-21T17:57:01.065Z,30.20
2023-01-21T17:59:36.682Z,29.45
2023-01-21T18:02:13.535Z,31.27
2023-01-21T18:04:45.651Z,32.25
2023-01-21T18:07:26.919Z,34.35
2023-01-21T18:10:02.643Z,31.23
2023-01-21T18:12:34.133Z,30.70
2023-01-21T18:15:06.149Z,31.90
2023-01-21T18:17:37.707Z,29.98
2023-01-21T18:20:24.702Z,32.58
2023-01-21T18:22:58.236Z,30.50
2023-01-21T18:25:30.174Z,31.73
2023-01-21T18:28:01.888Z,32.08
2023-01-21T18:30:33.335Z,31.02
2023-01-21T18:33:04.759Z,31.87
2023-01-21T18:35:36.305Z,35.47
2023-01-21T18:38:16.630Z,35.53
2023-01-21T18:40:48.168Z,39.10
2023-01-21T18:43:19.618Z,34.20
2023-01-21T18:45:53.287Z,35.00
2023-01-21T18:48:30.348Z,37.70
2023-01-21T18:51:01.796Z,38.17
2023-01-21T18:53:33.257Z,34.00
2023-01-21T18:56:05.208Z,36.30
2023-01-21T18:58:36.646Z,36.65
2023-01-21T19:01:22.017Z,37.20
2023-01-21T19:03:54.560Z,34.22
2023-01-21T19:06:26.062Z,36.20
2023-01-21T19:09:00.662Z,36.35
2023-01-21T19:11:32.129Z,41.30
2023-01-21T19:14:03.591Z,37.55
2023-01-21T19:16:35.166Z,37.47
2023-01-21T19:19:14.927Z,37.00
2023-01-21T19:21:46.388Z,38.38
2023-01-21T19:24:17.844Z,37.35
2023-01-21T19:26:49.335Z,38.63
2023-01-21T19:29:20.847Z,36.35
2023-01-21T19:31:52.915Z,38.30
2023-01-21T19:34:24.366Z,36.43
2023-01-21T19:36:55.860Z,37.80
2023-01-21T19:39:27.333Z,37.72
2023-01-21T19:42:08.006Z,37.58
2023-01-21T19:44:41.629Z,39.45
2023-01-21T19:47:27.674Z,50.38
2023-01-21T19:49:59.082Z,46.45
2023-01-21T19:52:30.520Z,45.70
2023-01-21T19:55:01.965Z,36.30
2023-01-21T19:57:33.648Z,39.33
2023-01-21T20:00:16.388Z,34.35
2023-01-21T20:02:48.511Z,50.70
2023-01-21T20:05:20.991Z,40.47
2023-01-21T20:07:53.814Z,34.27
2023-01-21T20:10:28.274Z,43.53
2023-01-21T20:12:59.779Z,33.65
2023-01-21T20:15:32.870Z,47.05
2023-01-21T20:18:05.076Z,34.25
2023-01-21T20:20:36.529Z,35.28
2023-01-21T20:23:13.707Z,35.30
2023-01-21T20:25:48.213Z,34.00
2023-01-21T20:28:27.591Z,33.58
2023-01-21T20:30:59.037Z,37.03
2023-01-21T20:33:30.491Z,35.92
2023-01-21T20:36:04.094Z,37.47
2023-01-21T20:38:37.350Z,37.00
2023-01-21T20:41:09.704Z,39.25
2023-01-21T20:43:41.566Z,37.85
2023-01-21T20:46:20.169Z,39.05
2023-01-21T20:48:51.619Z,41.00
2023-01-21T20:51:24.534Z,35.40
2023-01-21T20:53:56.022Z,38.25
2023-01-21T20:56:31.824Z,34.47
2023-01-21T20:59:03.326Z,37.90
2023-01-21T21:01:35.063Z,37.78
2023-01-21T21:04:06.618Z,37.95
2023-01-21T21:06:38.074Z,39.15
2023-01-21T21:09:09.829Z,39.65
2023-01-21T21:11:41.248Z,43.33
2023-01-21T21:14:13.409Z,35.85
2023-01-21T21:16:44.966Z,36.88
2023-01-21T21:19:16.469Z,36.38
2023-01-21T21:21:47.879Z,37.40
2023-01-21T21:24:19.329Z,50.90
2023-01-21T21:26:50.760Z,40.53
2023-01-21T21:29:22.231Z,38.58
2023-01-21T21:31:53.755Z,37.53
2023-01-21T21:34:25.305Z,35.55
2023-01-21T21:36:56.693Z,41.30
2023-01-21T21:39:28.154Z,39.58
2023-01-21T21:41:59.583Z,40.88
2023-01-21T21:44:31.196Z,39.70
2023-01-21T21:47:02.621Z,38.17
2023-01-21T21:49:34.082Z,35.92
2023-01-21T21:52:05.554Z,35.67
2023-01-21T21:54:36.953Z,36.42
2023-01-21T21:57:08.424Z,32.95
2023-01-21T21:59:40.862Z,32.88
2023-01-21T22:02:12.839Z,31.20
2023-01-21T22:04:44.280Z,33.50
2023-01-21T22:07:15.726Z,34.80
2023-01-21T22:09:47.208Z,33.67
2023-01-21T22:12:18.707Z,30.85
2023-01-21T22:14:50.191Z,32.43
2023-01-21T22:17:21.651Z,29.15
2023-01-21T22:19:53.085Z,28.08
2023-01-21T22:22:24.529Z,28.50
2023-01-21T22:24:55.952Z,28.48
2023-01-21T22:27:27.426Z,27.83
2023-01-21T22:30:00.635Z,26.70
2023-01-21T22:32:32.884Z,25.98
2023-01-21T22:35:04.832Z,26.88
2023-01-21T22:37:36.238Z,26.08
2023-01-21T22:40:08.616Z,24.77
2023-01-21T22:42:40.056Z,24.15
2023-01-21T22:45:11.813Z,24.65
2023-01-21T22:47:43.276Z,24.13
2023-01-21T22:50:15.147Z,23.30
2023-01-21T22:52:46.583Z,24.00
2023-01-21T22:55:18.197Z,23.27
2023-01-21T22:57:49.810Z,22.08
2023-01-21T23:00:35.774Z,23.63
2023-01-21T23:03:08.515Z,23.30
2023-01-21T23:05:39.969Z,24.27
2023-01-21T23:08:12.116Z,26.30
2023-01-21T23:10:44.406Z,23.02
2023-01-21T23:13:16.692Z,21.73
2023-01-21T23:15:48.162Z,23.50
2023-01-21T23:18:19.693Z,23.13
2023-01-21T23:20:51.174Z,22.60
2023-01-21T23:23:23.614Z,21.13
2023-01-21T23:25:55.053Z,21.90
2023-01-21T23:28:29.411Z,20.58
2023-01-21T23:31:13.301Z,20.70
2023-01-21T23:33:48.487Z,21.15
2023-01-21T23:36:20.290Z,21.15
2023-01-21T23:38:51.734Z,21.05
2023-01-21T23:41:23.143Z,20.38
2023-01-21T23:43:57.572Z,19.92
2023-01-21T23:46:29.439Z,20.02
2023-01-21T23:49:00.981Z,20.45
2023-01-21T23:51:32.462Z,19.70
2023-01-21T23:54:04.008Z,19.13
2023-01-21T23:56:35.506Z,19.42
2023-01-21T23:59:07.382Z,19.45
